In Rescue
 
Open Full Screen Window  High Contrast Mode
January 18, 2019 7:47 AM CST
Weather Information
Wind Direction
  ---
Wind Speed
  00 kt (0 mph)
Wind Gust
  00 kt (0 mph)
Altimeter
30.29 in
Visibility
7 SM
Temperature
-25° C
-12° F
Dewpoint
-28° C
-17° F
Humidity
76%
1hr Rain Fall
00.00 in.
24hr Rain Fall
00.00 in.
Sky Condition
Clear
VFR

METAR KBJI 181347Z AUTO 00000KT 7SM CLR M25/M28 A3029 RMK AO2 T12551281

FAA Disclaimer: The data displayed is for advisory purposes only and is not to be used for flight planning or operations.